LKBU weather

Bubovice Airport
Bubovice, Central Bohemian Region, Czech Republic

Public forecast

Using degrees Celsius for public forecast. Weather courtesy of forecast.io.

Closest aviation weather report (METAR) to Bubovice Airport

Closest report is Václav Havel Airport Prague, 8.2 nm (15.2 km) NNE. Retrieved 2019/11/15 09:30 UTC (0 seconds ago):

LKPR 150930Z 11009KT 9999 FEW022 09/06 Q1003 NOSIG

Closest aviation forecast (TAF) to Bubovice Airport

Closest forecast is Václav Havel Airport Prague, 8.2 nm (15.2 km) NNE. Retrieved 2019/11/15 06:30 UTC (3 hours ago):

TAF LKPR 150500Z 1506/1612 10009KT 9999 OVC017 TEMPO 1506/1507 SCT006 BKN010 BECMG 1507/1509 CAVOK TEMPO 1508/1518 13010G22KT TEMPO 1600/1606 9000 -RA BKN030 BECMG 1604/1606 24009KT